sensor_id;sensor_type;location;lat;lon;timestamp;P1;durP1;ratioP1;P2;durP2;ratioP2
54897;SDS011;40800;52.704;6.398;2022-10-23T00:01:25;31.60;;;28.73;;
54897;SDS011;40800;52.704;6.398;2022-10-23T00:03:54;32.17;;;28.90;;
54897;SDS011;40800;52.704;6.398;2022-10-23T00:06:22;32.75;;;29.52;;
54897;SDS011;40800;52.704;6.398;2022-10-23T00:08:48;32.78;;;29.65;;
54897;SDS011;40800;52.704;6.398;2022-10-23T00:11:16;31.30;;;28.30;;
54897;SDS011;40800;52.704;6.398;2022-10-23T00:13:44;33.67;;;30.40;;
54897;SDS011;40800;52.704;6.398;2022-10-23T00:16:11;32.70;;;29.65;;
54897;SDS011;40800;52.704;6.398;2022-10-23T00:18:37;32.28;;;29.13;;
54897;SDS011;40800;52.704;6.398;2022-10-23T00:21:04;31.67;;;29.03;;
54897;SDS011;40800;52.704;6.398;2022-10-23T00:23:30;30.52;;;28.02;;
54897;SDS011;40800;52.704;6.398;2022-10-23T00:25:56;31.45;;;28.65;;
54897;SDS011;40800;52.704;6.398;2022-10-23T00:28:21;31.40;;;28.48;;
54897;SDS011;40800;52.704;6.398;2022-10-23T00:30:47;32.20;;;29.23;;
54897;SDS011;40800;52.704;6.398;2022-10-23T00:33:13;31.55;;;28.65;;
54897;SDS011;40800;52.704;6.398;2022-10-23T00:35:39;31.58;;;28.63;;
54897;SDS011;40800;52.704;6.398;2022-10-23T00:38:06;31.42;;;28.52;;
54897;SDS011;40800;52.704;6.398;2022-10-23T00:40:32;30.58;;;27.77;;
54897;SDS011;40800;52.704;6.398;2022-10-23T00:42:58;31.08;;;28.13;;
54897;SDS011;40800;52.704;6.398;2022-10-23T00:45:24;31.20;;;28.27;;
54897;SDS011;40800;52.704;6.398;2022-10-23T00:48:00;29.80;;;27.25;;
54897;SDS011;40800;52.704;6.398;2022-10-23T00:50:27;32.65;;;29.63;;
54897;SDS011;40800;52.704;6.398;2022-10-23T00:52:55;31.15;;;28.30;;
54897;SDS011;40800;52.704;6.398;2022-10-23T00:55:23;30.73;;;27.83;;
54897;SDS011;40800;52.704;6.398;2022-10-23T00:57:50;30.25;;;27.42;;
54897;SDS011;40800;52.704;6.398;2022-10-23T01:00:24;29.60;;;26.98;;
54897;SDS011;40800;52.704;6.398;2022-10-23T01:02:52;29.88;;;26.92;;
54897;SDS011;40800;52.704;6.398;2022-10-23T01:05:29;29.63;;;26.95;;
54897;SDS011;40800;52.704;6.398;2022-10-23T01:08:05;30.48;;;27.58;;
54897;SDS011;40800;52.704;6.398;2022-10-23T01:10:44;30.95;;;28.02;;
54897;SDS011;40800;52.704;6.398;2022-10-23T01:16:04;30.25;;;27.33;;
54897;SDS011;40800;52.704;6.398;2022-10-23T01:18:43;29.88;;;26.95;;
54897;SDS011;40800;52.704;6.398;2022-10-23T01:21:19;30.55;;;27.63;;
54897;SDS011;40800;52.704;6.398;2022-10-23T01:24:06;30.75;;;27.77;;
54897;SDS011;40800;52.704;6.398;2022-10-23T01:32:20;28.88;;;26.25;;
54897;SDS011;40800;52.704;6.398;2022-10-23T01:35:11;29.10;;;26.23;;
54897;SDS011;40800;52.704;6.398;2022-10-23T01:40:23;29.25;;;26.52;;
54897;SDS011;40800;52.704;6.398;2022-10-23T01:42:58;28.08;;;25.58;;
54897;SDS011;40800;52.704;6.398;2022-10-23T01:48:03;29.30;;;26.60;;
54897;SDS011;40800;52.704;6.398;2022-10-23T01:50:31;29.52;;;26.98;;
54897;SDS011;40800;52.704;6.398;2022-10-23T01:52:58;30.33;;;27.27;;
54897;SDS011;40800;52.704;6.398;2022-10-23T01:55:24;28.00;;;25.67;;
54897;SDS011;40800;52.704;6.398;2022-10-23T01:57:50;29.25;;;26.52;;
54897;SDS011;40800;52.704;6.398;2022-10-23T02:02:44;28.75;;;26.25;;
54897;SDS011;40800;52.704;6.398;2022-10-23T02:05:23;28.48;;;25.85;;
54897;SDS011;40800;52.704;6.398;2022-10-23T02:07:50;28.95;;;26.40;;
54897;SDS011;40800;52.704;6.398;2022-10-23T02:10:16;29.83;;;27.33;;
54897;SDS011;40800;52.704;6.398;2022-10-23T02:18:14;28.35;;;25.83;;
54897;SDS011;40800;52.704;6.398;2022-10-23T02:21:04;28.60;;;25.92;;
54897;SDS011;40800;52.704;6.398;2022-10-23T02:26:50;29.38;;;26.67;;
54897;SDS011;40800;52.704;6.398;2022-10-23T02:29:19;28.45;;;25.98;;
54897;SDS011;40800;52.704;6.398;2022-10-23T02:31:55;30.45;;;27.73;;
54897;SDS011;40800;52.704;6.398;2022-10-23T02:34:21;29.38;;;26.63;;
54897;SDS011;40800;52.704;6.398;2022-10-23T02:36:47;30.20;;;27.42;;
54897;SDS011;40800;52.704;6.398;2022-10-23T02:39:12;29.63;;;26.85;;
54897;SDS011;40800;52.704;6.398;2022-10-23T02:41:40;29.58;;;26.88;;
54897;SDS011;40800;52.704;6.398;2022-10-23T02:49:49;30.23;;;27.38;;
54897;SDS011;40800;52.704;6.398;2022-10-23T02:52:26;29.75;;;26.88;;
54897;SDS011;40800;52.704;6.398;2022-10-23T02:55:02;31.10;;;28.05;;
54897;SDS011;40800;52.704;6.398;2022-10-23T02:57:36;30.50;;;27.65;;
54897;SDS011;40800;52.704;6.398;2022-10-23T03:00:17;31.40;;;28.15;;
54897;SDS011;40800;52.704;6.398;2022-10-23T03:02:45;30.55;;;27.70;;
54897;SDS011;40800;52.704;6.398;2022-10-23T03:05:19;29.83;;;27.05;;
54897;SDS011;40800;52.704;6.398;2022-10-23T03:07:48;31.60;;;28.23;;
54897;SDS011;40800;52.704;6.398;2022-10-23T03:10:13;31.58;;;28.58;;
54897;SDS011;40800;52.704;6.398;2022-10-23T03:12:39;31.63;;;28.55;;
54897;SDS011;40800;52.704;6.398;2022-10-23T03:15:05;31.38;;;28.50;;
54897;SDS011;40800;52.704;6.398;2022-10-23T03:17:32;32.30;;;29.15;;
54897;SDS011;40800;52.704;6.398;2022-10-23T03:19:57;31.55;;;28.33;;
54897;SDS011;40800;52.704;6.398;2022-10-23T03:22:23;30.63;;;27.63;;
54897;SDS011;40800;52.704;6.398;2022-10-23T03:24:49;30.92;;;28.00;;
54897;SDS011;40800;52.704;6.398;2022-10-23T03:27:14;31.50;;;28.38;;
54897;SDS011;40800;52.704;6.398;2022-10-23T03:29:40;32.70;;;29.48;;
54897;SDS011;40800;52.704;6.398;2022-10-23T03:32:06;30.90;;;28.08;;
54897;SDS011;40800;52.704;6.398;2022-10-23T03:34:32;31.13;;;28.07;;
54897;SDS011;40800;52.704;6.398;2022-10-23T03:36:58;32.55;;;29.33;;
54897;SDS011;40800;52.704;6.398;2022-10-23T03:39:24;32.72;;;29.50;;
54897;SDS011;40800;52.704;6.398;2022-10-23T03:41:50;31.75;;;28.70;;
54897;SDS011;40800;52.704;6.398;2022-10-23T03:44:15;32.95;;;29.55;;
54897;SDS011;40800;52.704;6.398;2022-10-23T03:46:41;32.67;;;29.45;;
54897;SDS011;40800;52.704;6.398;2022-10-23T03:49:07;31.85;;;28.80;;
54897;SDS011;40800;52.704;6.398;2022-10-23T03:51:33;33.55;;;30.33;;
54897;SDS011;40800;52.704;6.398;2022-10-23T03:53:59;32.20;;;29.02;;
54897;SDS011;40800;52.704;6.398;2022-10-23T03:56:24;33.35;;;29.92;;
54897;SDS011;40800;52.704;6.398;2022-10-23T03:58:50;31.77;;;28.52;;
54897;SDS011;40800;52.704;6.398;2022-10-23T04:01:16;32.63;;;29.08;;
54897;SDS011;40800;52.704;6.398;2022-10-23T04:03:41;32.47;;;29.17;;
54897;SDS011;40800;52.704;6.398;2022-10-23T04:06:07;33.35;;;30.05;;
54897;SDS011;40800;52.704;6.398;2022-10-23T04:08:33;32.90;;;29.48;;
54897;SDS011;40800;52.704;6.398;2022-10-23T04:10:59;32.88;;;29.35;;
54897;SDS011;40800;52.704;6.398;2022-10-23T04:13:24;30.70;;;27.73;;
54897;SDS011;40800;52.704;6.398;2022-10-23T04:15:51;32.25;;;29.05;;
54897;SDS011;40800;52.704;6.398;2022-10-23T04:18:17;32.42;;;29.17;;
54897;SDS011;40800;52.704;6.398;2022-10-23T04:20:43;31.67;;;28.42;;
54897;SDS011;40800;52.704;6.398;2022-10-23T04:23:11;31.70;;;28.58;;
54897;SDS011;40800;52.704;6.398;2022-10-23T04:25:36;31.27;;;28.08;;
54897;SDS011;40800;52.704;6.398;2022-10-23T04:28:02;30.23;;;27.23;;
54897;SDS011;40800;52.704;6.398;2022-10-23T04:30:28;31.98;;;29.08;;
54897;SDS011;40800;52.704;6.398;2022-10-23T04:32:53;30.98;;;27.98;;
54897;SDS011;40800;52.704;6.398;2022-10-23T04:35:19;29.55;;;26.63;;
54897;SDS011;40800;52.704;6.398;2022-10-23T04:37:44;30.52;;;27.48;;
54897;SDS011;40800;52.704;6.398;2022-10-23T04:40:10;29.90;;;26.95;;
54897;SDS011;40800;52.704;6.398;2022-10-23T04:42:36;30.50;;;27.35;;
54897;SDS011;40800;52.704;6.398;2022-10-23T04:45:02;30.00;;;27.10;;
54897;SDS011;40800;52.704;6.398;2022-10-23T04:47:28;30.60;;;27.70;;
54897;SDS011;40800;52.704;6.398;2022-10-23T04:49:54;30.80;;;27.48;;
54897;SDS011;40800;52.704;6.398;2022-10-23T04:52:19;30.45;;;27.50;;
54897;SDS011;40800;52.704;6.398;2022-10-23T04:54:45;30.77;;;27.60;;
54897;SDS011;40800;52.704;6.398;2022-10-23T04:57:11;31.35;;;28.27;;
54897;SDS011;40800;52.704;6.398;2022-10-23T04:59:37;31.17;;;28.08;;
54897;SDS011;40800;52.704;6.398;2022-10-23T05:02:02;31.08;;;27.90;;
54897;SDS011;40800;52.704;6.398;2022-10-23T05:04:28;30.42;;;27.30;;
54897;SDS011;40800;52.704;6.398;2022-10-23T05:06:54;29.63;;;26.95;;
54897;SDS011;40800;52.704;6.398;2022-10-23T05:09:19;30.70;;;27.55;;
54897;SDS011;40800;52.704;6.398;2022-10-23T05:11:46;31.50;;;27.23;;
54897;SDS011;40800;52.704;6.398;2022-10-23T05:14:12;30.02;;;27.17;;
54897;SDS011;40800;52.704;6.398;2022-10-23T05:19:07;30.08;;;27.25;;
54897;SDS011;40800;52.704;6.398;2022-10-23T05:21:34;31.05;;;28.15;;
54897;SDS011;40800;52.704;6.398;2022-10-23T05:24:02;33.28;;;28.27;;
54897;SDS011;40800;52.704;6.398;2022-10-23T05:26:28;30.65;;;27.52;;
54897;SDS011;40800;52.704;6.398;2022-10-23T05:28:55;29.88;;;26.95;;
54897;SDS011;40800;52.704;6.398;2022-10-23T05:31:20;30.27;;;27.38;;
54897;SDS011;40800;52.704;6.398;2022-10-23T05:33:49;31.35;;;28.05;;
54897;SDS011;40800;52.704;6.398;2022-10-23T05:36:18;30.65;;;27.77;;
54897;SDS011;40800;52.704;6.398;2022-10-23T05:38:43;29.55;;;26.67;;
54897;SDS011;40800;52.704;6.398;2022-10-23T05:41:10;29.85;;;26.92;;
54897;SDS011;40800;52.704;6.398;2022-10-23T05:43:35;31.20;;;27.90;;
54897;SDS011;40800;52.704;6.398;2022-10-23T05:46:03;30.30;;;27.10;;
54897;SDS011;40800;52.704;6.398;2022-10-23T05:48:30;30.45;;;27.45;;
54897;SDS011;40800;52.704;6.398;2022-10-23T05:51:00;30.08;;;27.23;;
54897;SDS011;40800;52.704;6.398;2022-10-23T05:53:30;31.25;;;28.10;;
54897;SDS011;40800;52.704;6.398;2022-10-23T05:56:01;30.85;;;27.90;;
54897;SDS011;40800;52.704;6.398;2022-10-23T05:58:30;30.45;;;27.42;;
54897;SDS011;40800;52.704;6.398;2022-10-23T06:00:56;30.85;;;28.13;;
54897;SDS011;40800;52.704;6.398;2022-10-23T06:03:22;31.48;;;28.48;;
54897;SDS011;40800;52.704;6.398;2022-10-23T06:05:48;31.63;;;28.60;;
54897;SDS011;40800;52.704;6.398;2022-10-23T06:08:14;31.65;;;28.23;;
54897;SDS011;40800;52.704;6.398;2022-10-23T06:10:40;31.52;;;28.30;;
54897;SDS011;40800;52.704;6.398;2022-10-23T06:13:05;30.95;;;27.92;;
54897;SDS011;40800;52.704;6.398;2022-10-23T06:15:31;31.85;;;28.75;;
54897;SDS011;40800;52.704;6.398;2022-10-23T06:18:00;30.45;;;27.42;;
54897;SDS011;40800;52.704;6.398;2022-10-23T06:20:27;30.77;;;27.92;;
54897;SDS011;40800;52.704;6.398;2022-10-23T06:22:53;31.05;;;28.30;;
54897;SDS011;40800;52.704;6.398;2022-10-23T06:25:18;31.73;;;28.52;;
54897;SDS011;40800;52.704;6.398;2022-10-23T06:27:44;33.00;;;28.15;;
54897;SDS011;40800;52.704;6.398;2022-10-23T06:30:10;31.35;;;28.35;;
54897;SDS011;40800;52.704;6.398;2022-10-23T06:32:36;31.10;;;28.27;;
54897;SDS011;40800;52.704;6.398;2022-10-23T06:35:01;31.08;;;28.00;;
54897;SDS011;40800;52.704;6.398;2022-10-23T06:37:27;31.45;;;28.52;;
54897;SDS011;40800;52.704;6.398;2022-10-23T06:39:53;31.33;;;28.05;;
54897;SDS011;40800;52.704;6.398;2022-10-23T06:42:18;31.85;;;28.85;;
54897;SDS011;40800;52.704;6.398;2022-10-23T06:44:44;31.48;;;28.40;;
54897;SDS011;40800;52.704;6.398;2022-10-23T06:47:09;30.50;;;27.85;;
54897;SDS011;40800;52.704;6.398;2022-10-23T06:49:37;31.58;;;28.67;;
54897;SDS011;40800;52.704;6.398;2022-10-23T06:52:02;31.90;;;28.98;;
54897;SDS011;40800;52.704;6.398;2022-10-23T06:54:28;32.03;;;28.73;;
54897;SDS011;40800;52.704;6.398;2022-10-23T06:56:53;32.05;;;29.15;;
54897;SDS011;40800;52.704;6.398;2022-10-23T06:59:19;32.30;;;28.95;;
54897;SDS011;40800;52.704;6.398;2022-10-23T07:01:44;33.17;;;29.88;;
54897;SDS011;40800;52.704;6.398;2022-10-23T07:04:10;32.78;;;29.38;;
54897;SDS011;40800;52.704;6.398;2022-10-23T07:06:38;31.23;;;28.42;;
54897;SDS011;40800;52.704;6.398;2022-10-23T07:09:04;31.63;;;28.73;;
54897;SDS011;40800;52.704;6.398;2022-10-23T07:11:30;32.95;;;29.77;;
54897;SDS011;40800;52.704;6.398;2022-10-23T07:13:55;33.25;;;30.02;;
54897;SDS011;40800;52.704;6.398;2022-10-23T07:16:21;31.13;;;28.40;;
54897;SDS011;40800;52.704;6.398;2022-10-23T07:18:48;32.90;;;29.73;;
54897;SDS011;40800;52.704;6.398;2022-10-23T07:21:22;31.85;;;28.85;;
54897;SDS011;40800;52.704;6.398;2022-10-23T07:23:48;32.47;;;29.17;;
54897;SDS011;40800;52.704;6.398;2022-10-23T07:26:14;32.38;;;29.40;;
54897;SDS011;40800;52.704;6.398;2022-10-23T07:28:41;32.33;;;29.00;;
54897;SDS011;40800;52.704;6.398;2022-10-23T07:31:08;32.08;;;28.80;;
54897;SDS011;40800;52.704;6.398;2022-10-23T07:33:34;33.33;;;29.93;;
54897;SDS011;40800;52.704;6.398;2022-10-23T07:36:02;32.42;;;29.42;;
54897;SDS011;40800;52.704;6.398;2022-10-23T07:38:29;30.33;;;27.73;;
54897;SDS011;40800;52.704;6.398;2022-10-23T07:40:57;32.58;;;29.50;;
54897;SDS011;40800;52.704;6.398;2022-10-23T07:43:23;31.30;;;28.30;;
54897;SDS011;40800;52.704;6.398;2022-10-23T07:45:50;32.63;;;29.63;;
54897;SDS011;40800;52.704;6.398;2022-10-23T07:48:16;30.67;;;27.80;;
54897;SDS011;40800;52.704;6.398;2022-10-23T07:50:42;30.85;;;27.63;;
54897;SDS011;40800;52.704;6.398;2022-10-23T07:53:15;31.42;;;28.23;;
54897;SDS011;40800;52.704;6.398;2022-10-23T07:55:50;30.30;;;27.45;;
54897;SDS011;40800;52.704;6.398;2022-10-23T07:58:17;30.73;;;27.70;;
54897;SDS011;40800;52.704;6.398;2022-10-23T08:00:42;30.90;;;27.90;;
54897;SDS011;40800;52.704;6.398;2022-10-23T08:03:09;30.17;;;27.45;;
54897;SDS011;40800;52.704;6.398;2022-10-23T08:05:36;30.90;;;28.27;;
54897;SDS011;40800;52.704;6.398;2022-10-23T08:08:02;30.10;;;27.25;;
54897;SDS011;40800;52.704;6.398;2022-10-23T08:10:28;30.15;;;27.38;;
54897;SDS011;40800;52.704;6.398;2022-10-23T08:12:53;30.38;;;27.35;;
54897;SDS011;40800;52.704;6.398;2022-10-23T08:15:19;30.00;;;26.85;;
54897;SDS011;40800;52.704;6.398;2022-10-23T08:17:45;30.48;;;27.50;;
54897;SDS011;40800;52.704;6.398;2022-10-23T08:20:10;29.08;;;26.23;;
54897;SDS011;40800;52.704;6.398;2022-10-23T08:22:38;29.67;;;26.83;;
54897;SDS011;40800;52.704;6.398;2022-10-23T08:25:04;28.70;;;26.23;;
54897;SDS011;40800;52.704;6.398;2022-10-23T08:27:30;27.52;;;24.80;;
54897;SDS011;40800;52.704;6.398;2022-10-23T08:29:55;27.58;;;25.08;;
54897;SDS011;40800;52.704;6.398;2022-10-23T08:32:21;27.77;;;24.73;;
54897;SDS011;40800;52.704;6.398;2022-10-23T08:34:46;26.98;;;24.40;;
54897;SDS011;40800;52.704;6.398;2022-10-23T08:37:12;27.25;;;24.70;;
54897;SDS011;40800;52.704;6.398;2022-10-23T08:39:38;26.27;;;23.88;;
54897;SDS011;40800;52.704;6.398;2022-10-23T08:42:03;26.75;;;24.20;;
54897;SDS011;40800;52.704;6.398;2022-10-23T08:44:31;26.58;;;23.95;;
54897;SDS011;40800;52.704;6.398;2022-10-23T08:47:24;26.58;;;24.10;;
54897;SDS011;40800;52.704;6.398;2022-10-23T08:52:59;26.27;;;23.70;;
54897;SDS011;40800;52.704;6.398;2022-10-23T08:55:36;25.33;;;22.95;;
54897;SDS011;40800;52.704;6.398;2022-10-23T08:58:07;25.90;;;23.48;;
54897;SDS011;40800;52.704;6.398;2022-10-23T09:00:42;24.27;;;22.17;;
54897;SDS011;40800;52.704;6.398;2022-10-23T09:03:11;25.60;;;23.38;;
54897;SDS011;40800;52.704;6.398;2022-10-23T09:13:58;24.65;;;22.15;;
54897;SDS011;40800;52.704;6.398;2022-10-23T09:16:49;24.05;;;21.85;;
54897;SDS011;40800;52.704;6.398;2022-10-23T09:19:22;24.45;;;22.45;;
54897;SDS011;40800;52.704;6.398;2022-10-23T09:21:51;23.88;;;21.67;;
54897;SDS011;40800;52.704;6.398;2022-10-23T09:24:19;24.00;;;21.77;;
54897;SDS011;40800;52.704;6.398;2022-10-23T09:26:47;23.50;;;21.40;;
54897;SDS011;40800;52.704;6.398;2022-10-23T09:31:50;23.25;;;21.33;;
54897;SDS011;40800;52.704;6.398;2022-10-23T09:34:19;23.35;;;21.33;;
54897;SDS011;40800;52.704;6.398;2022-10-23T09:36:48;23.38;;;21.17;;
54897;SDS011;40800;52.704;6.398;2022-10-23T09:39:22;23.20;;;21.25;;
54897;SDS011;40800;52.704;6.398;2022-10-23T09:41:55;22.77;;;20.67;;
54897;SDS011;40800;52.704;6.398;2022-10-23T09:44:22;23.52;;;21.23;;
54897;SDS011;40800;52.704;6.398;2022-10-23T09:47:00;23.00;;;20.95;;
54897;SDS011;40800;52.704;6.398;2022-10-23T09:49:37;23.13;;;21.02;;
54897;SDS011;40800;52.704;6.398;2022-10-23T09:54:38;23.13;;;21.17;;
54897;SDS011;40800;52.704;6.398;2022-10-23T09:57:50;23.23;;;20.92;;
54897;SDS011;40800;52.704;6.398;2022-10-23T10:00:02;23.15;;;21.05;;
54897;SDS011;40800;52.704;6.398;2022-10-23T10:02:40;23.23;;;20.88;;
54897;SDS011;40800;52.704;6.398;2022-10-23T10:05:21;23.33;;;21.23;;
54897;SDS011;40800;52.704;6.398;2022-10-23T10:10:33;23.43;;;21.43;;
54897;SDS011;40800;52.704;6.398;2022-10-23T10:14:05;21.20;;;19.60;;
54897;SDS011;40800;52.704;6.398;2022-10-23T10:15:59;21.90;;;20.08;;
54897;SDS011;40800;52.704;6.398;2022-10-23T10:18:57;22.88;;;20.77;;
54897;SDS011;40800;52.704;6.398;2022-10-23T10:21:35;20.50;;;18.80;;
54897;SDS011;40800;52.704;6.398;2022-10-23T10:27:00;21.13;;;19.20;;
54897;SDS011;40800;52.704;6.398;2022-10-23T10:30:02;20.73;;;18.95;;
54897;SDS011;40800;52.704;6.398;2022-10-23T10:35:25;20.83;;;18.73;;
54897;SDS011;40800;52.704;6.398;2022-10-23T10:49:26;18.25;;;16.65;;
54897;SDS011;40800;52.704;6.398;2022-10-23T10:57:54;18.35;;;16.63;;
54897;SDS011;40800;52.704;6.398;2022-10-23T11:00:23;18.77;;;17.20;;
54897;SDS011;40800;52.704;6.398;2022-10-23T11:02:56;18.00;;;16.13;;
54897;SDS011;40800;52.704;6.398;2022-10-23T11:07:59;18.17;;;16.60;;
54897;SDS011;40800;52.704;6.398;2022-10-23T11:10:40;18.45;;;16.85;;
54897;SDS011;40800;52.704;6.398;2022-10-23T11:15:54;19.73;;;18.02;;
54897;SDS011;40800;52.704;6.398;2022-10-23T11:18:24;18.67;;;16.98;;
54897;SDS011;40800;52.704;6.398;2022-10-23T11:26:28;19.05;;;17.40;;
54897;SDS011;40800;52.704;6.398;2022-10-23T11:31:45;18.92;;;17.42;;
54897;SDS011;40800;52.704;6.398;2022-10-23T11:37:25;19.30;;;17.60;;
54897;SDS011;40800;52.704;6.398;2022-10-23T11:40:33;17.83;;;16.38;;
54897;SDS011;40800;52.704;6.398;2022-10-23T11:42:47;18.90;;;17.02;;
54897;SDS011;40800;52.704;6.398;2022-10-23T11:48:33;18.38;;;16.52;;
54897;SDS011;40800;52.704;6.398;2022-10-23T11:51:02;16.88;;;15.48;;
54897;SDS011;40800;52.704;6.398;2022-10-23T11:56:02;16.92;;;15.40;;
54897;SDS011;40800;52.704;6.398;2022-10-23T12:03:48;17.10;;;15.50;;
54897;SDS011;40800;52.704;6.398;2022-10-23T12:06:25;17.30;;;15.90;;
54897;SDS011;40800;52.704;6.398;2022-10-23T12:09:06;17.30;;;15.80;;
54897;SDS011;40800;52.704;6.398;2022-10-23T12:12:03;16.65;;;15.23;;
54897;SDS011;40800;52.704;6.398;2022-10-23T12:19:48;17.30;;;15.90;;
54897;SDS011;40800;52.704;6.398;2022-10-23T12:22:15;16.88;;;15.27;;
54897;SDS011;40800;52.704;6.398;2022-10-23T12:25:02;16.45;;;15.02;;
54897;SDS011;40800;52.704;6.398;2022-10-23T12:27:47;16.55;;;15.25;;
54897;SDS011;40800;52.704;6.398;2022-10-23T12:30:23;17.40;;;15.73;;
54897;SDS011;40800;52.704;6.398;2022-10-23T12:38:41;16.00;;;14.60;;
54897;SDS011;40800;52.704;6.398;2022-10-23T12:43:55;14.80;;;13.73;;
54897;SDS011;40800;52.704;6.398;2022-10-23T12:46:28;15.18;;;13.90;;
54897;SDS011;40800;52.704;6.398;2022-10-23T12:49:15;15.95;;;14.65;;
54897;SDS011;40800;52.704;6.398;2022-10-23T12:51:43;15.85;;;14.43;;
54897;SDS011;40800;52.704;6.398;2022-10-23T12:54:16;29.67;;;14.88;;
54897;SDS011;40800;52.704;6.398;2022-10-23T12:56:43;16.83;;;14.43;;
54897;SDS011;40800;52.704;6.398;2022-10-23T12:59:13;16.23;;;14.77;;
54897;SDS011;40800;52.704;6.398;2022-10-23T13:01:41;15.65;;;14.27;;
54897;SDS011;40800;52.704;6.398;2022-10-23T13:04:20;16.00;;;14.57;;
54897;SDS011;40800;52.704;6.398;2022-10-23T13:06:53;15.65;;;14.18;;
54897;SDS011;40800;52.704;6.398;2022-10-23T13:09:23;15.35;;;13.95;;
54897;SDS011;40800;52.704;6.398;2022-10-23T13:11:49;15.68;;;14.30;;
54897;SDS011;40800;52.704;6.398;2022-10-23T13:16:59;15.65;;;14.07;;
54897;SDS011;40800;52.704;6.398;2022-10-23T13:19:26;15.65;;;14.35;;
54897;SDS011;40800;52.704;6.398;2022-10-23T13:21:51;14.88;;;13.77;;
54897;SDS011;40800;52.704;6.398;2022-10-23T13:24:18;14.55;;;13.35;;
54897;SDS011;40800;52.704;6.398;2022-10-23T13:26:45;14.80;;;13.60;;
54897;SDS011;40800;52.704;6.398;2022-10-23T13:29:21;14.25;;;13.15;;
54897;SDS011;40800;52.704;6.398;2022-10-23T13:31:50;14.98;;;13.68;;
54897;SDS011;40800;52.704;6.398;2022-10-23T13:37:02;14.25;;;13.05;;
54897;SDS011;40800;52.704;6.398;2022-10-23T13:39:46;14.63;;;13.30;;
54897;SDS011;40800;52.704;6.398;2022-10-23T13:42:22;13.95;;;12.85;;
54897;SDS011;40800;52.704;6.398;2022-10-23T13:44:48;14.32;;;13.13;;
54897;SDS011;40800;52.704;6.398;2022-10-23T13:47:13;14.48;;;13.18;;
54897;SDS011;40800;52.704;6.398;2022-10-23T13:49:41;14.32;;;13.20;;
54897;SDS011;40800;52.704;6.398;2022-10-23T13:52:07;14.00;;;12.88;;
54897;SDS011;40800;52.704;6.398;2022-10-23T13:54:35;14.52;;;13.25;;
54897;SDS011;40800;52.704;6.398;2022-10-23T13:57:01;14.23;;;13.13;;
54897;SDS011;40800;52.704;6.398;2022-10-23T13:59:26;14.27;;;13.05;;
54897;SDS011;40800;52.704;6.398;2022-10-23T14:01:52;13.85;;;12.90;;
54897;SDS011;40800;52.704;6.398;2022-10-23T14:04:18;14.30;;;12.90;;
54897;SDS011;40800;52.704;6.398;2022-10-23T14:06:44;14.13;;;13.02;;
54897;SDS011;40800;52.704;6.398;2022-10-23T14:09:12;14.88;;;13.52;;
54897;SDS011;40800;52.704;6.398;2022-10-23T14:11:39;14.15;;;13.05;;
54897;SDS011;40800;52.704;6.398;2022-10-23T14:14:05;14.43;;;13.05;;
54897;SDS011;40800;52.704;6.398;2022-10-23T14:16:31;14.27;;;13.10;;
54897;SDS011;40800;52.704;6.398;2022-10-23T14:18:57;14.48;;;13.18;;
54897;SDS011;40800;52.704;6.398;2022-10-23T14:21:23;13.25;;;12.27;;
54897;SDS011;40800;52.704;6.398;2022-10-23T14:23:50;15.35;;;13.85;;
54897;SDS011;40800;52.704;6.398;2022-10-23T14:26:20;13.30;;;12.35;;
54897;SDS011;40800;52.704;6.398;2022-10-23T14:28:55;13.88;;;12.88;;
54897;SDS011;40800;52.704;6.398;2022-10-23T14:31:21;13.90;;;12.90;;
54897;SDS011;40800;52.704;6.398;2022-10-23T14:33:56;14.00;;;12.73;;
54897;SDS011;40800;52.704;6.398;2022-10-23T14:36:24;13.43;;;12.32;;
54897;SDS011;40800;52.704;6.398;2022-10-23T14:38:54;14.37;;;13.30;;
54897;SDS011;40800;52.704;6.398;2022-10-23T14:41:20;14.27;;;12.80;;
54897;SDS011;40800;52.704;6.398;2022-10-23T14:43:46;13.27;;;12.23;;
54897;SDS011;40800;52.704;6.398;2022-10-23T14:46:13;13.45;;;12.20;;
54897;SDS011;40800;52.704;6.398;2022-10-23T14:48:40;14.20;;;13.00;;
54897;SDS011;40800;52.704;6.398;2022-10-23T14:51:06;13.23;;;12.13;;
54897;SDS011;40800;52.704;6.398;2022-10-23T14:53:41;13.38;;;12.38;;
54897;SDS011;40800;52.704;6.398;2022-10-23T14:56:06;13.48;;;12.50;;
54897;SDS011;40800;52.704;6.398;2022-10-23T14:58:32;20.10;;;12.60;;
54897;SDS011;40800;52.704;6.398;2022-10-23T15:00:58;12.60;;;11.68;;
54897;SDS011;40800;52.704;6.398;2022-10-23T15:03:24;13.32;;;12.15;;
54897;SDS011;40800;52.704;6.398;2022-10-23T15:05:51;13.98;;;11.90;;
54897;SDS011;40800;52.704;6.398;2022-10-23T15:08:16;12.75;;;11.75;;
54897;SDS011;40800;52.704;6.398;2022-10-23T15:10:42;13.63;;;12.20;;
54897;SDS011;40800;52.704;6.398;2022-10-23T15:13:08;12.88;;;11.88;;
54897;SDS011;40800;52.704;6.398;2022-10-23T15:15:33;12.80;;;11.80;;
54897;SDS011;40800;52.704;6.398;2022-10-23T15:17:59;12.70;;;11.77;;
54897;SDS011;40800;52.704;6.398;2022-10-23T15:20:24;13.20;;;12.02;;
54897;SDS011;40800;52.704;6.398;2022-10-23T15:22:50;18.63;;;12.65;;
54897;SDS011;40800;52.704;6.398;2022-10-23T15:25:16;13.00;;;11.80;;
54897;SDS011;40800;52.704;6.398;2022-10-23T15:27:41;12.77;;;11.88;;
54897;SDS011;40800;52.704;6.398;2022-10-23T15:30:07;12.73;;;11.55;;
54897;SDS011;40800;52.704;6.398;2022-10-23T15:32:33;12.98;;;11.80;;
54897;SDS011;40800;52.704;6.398;2022-10-23T15:34:58;13.52;;;12.40;;
54897;SDS011;40800;52.704;6.398;2022-10-23T15:37:24;13.40;;;11.85;;
54897;SDS011;40800;52.704;6.398;2022-10-23T15:39:50;12.23;;;11.20;;
54897;SDS011;40800;52.704;6.398;2022-10-23T15:42:16;13.25;;;11.68;;
54897;SDS011;40800;52.704;6.398;2022-10-23T15:44:43;12.88;;;11.60;;
54897;SDS011;40800;52.704;6.398;2022-10-23T15:47:08;13.05;;;11.85;;
54897;SDS011;40800;52.704;6.398;2022-10-23T15:49:34;13.27;;;12.15;;
54897;SDS011;40800;52.704;6.398;2022-10-23T15:52:01;12.70;;;11.60;;
54897;SDS011;40800;52.704;6.398;2022-10-23T15:54:28;12.63;;;11.57;;
54897;SDS011;40800;52.704;6.398;2022-10-23T15:56:53;14.00;;;12.82;;
54897;SDS011;40800;52.704;6.398;2022-10-23T15:59:20;13.13;;;11.90;;
54897;SDS011;40800;52.704;6.398;2022-10-23T16:01:47;12.85;;;11.82;;
54897;SDS011;40800;52.704;6.398;2022-10-23T16:04:13;13.00;;;12.00;;
54897;SDS011;40800;52.704;6.398;2022-10-23T16:06:40;13.00;;;11.98;;
54897;SDS011;40800;52.704;6.398;2022-10-23T16:09:06;12.50;;;11.55;;
54897;SDS011;40800;52.704;6.398;2022-10-23T16:11:32;12.63;;;11.52;;
54897;SDS011;40800;52.704;6.398;2022-10-23T16:14:00;12.15;;;11.05;;
54897;SDS011;40800;52.704;6.398;2022-10-23T16:16:27;12.52;;;11.40;;
54897;SDS011;40800;52.704;6.398;2022-10-23T16:18:53;12.63;;;11.60;;
54897;SDS011;40800;52.704;6.398;2022-10-23T16:21:20;13.00;;;11.80;;
54897;SDS011;40800;52.704;6.398;2022-10-23T16:23:51;12.85;;;11.75;;
54897;SDS011;40800;52.704;6.398;2022-10-23T16:26:19;13.07;;;11.82;;
54897;SDS011;40800;52.704;6.398;2022-10-23T16:28:45;13.73;;;12.43;;
54897;SDS011;40800;52.704;6.398;2022-10-23T16:31:12;12.63;;;11.52;;
54897;SDS011;40800;52.704;6.398;2022-10-23T16:33:40;12.80;;;11.85;;